sensor_id;sensor_type;location;lat;lon;timestamp;temperature;humidity
55642;DHT22;41509;53.108;6.100;2023-01-26T00:01:18;0.90;99.90
55642;DHT22;41509;53.108;6.100;2023-01-26T00:03:45;1.00;99.90
55642;DHT22;41509;53.108;6.100;2023-01-26T00:06:13;1.00;99.90
55642;DHT22;41509;53.108;6.100;2023-01-26T00:08:40;1.00;99.90
55642;DHT22;41509;53.108;6.100;2023-01-26T00:11:08;1.00;99.90
55642;DHT22;41509;53.108;6.100;2023-01-26T00:13:35;1.00;99.90
55642;DHT22;41509;53.108;6.100;2023-01-26T00:16:01;1.00;99.90
55642;DHT22;41509;53.108;6.100;2023-01-26T00:18:28;1.00;99.90
55642;DHT22;41509;53.108;6.100;2023-01-26T00:20:58;1.00;99.90
55642;DHT22;41509;53.108;6.100;2023-01-26T00:23:24;1.00;99.90
55642;DHT22;41509;53.108;6.100;2023-01-26T00:25:50;1.00;99.90
55642;DHT22;41509;53.108;6.100;2023-01-26T00:28:16;1.00;99.90
55642;DHT22;41509;53.108;6.100;2023-01-26T00:30:41;0.90;99.90
55642;DHT22;41509;53.108;6.100;2023-01-26T00:33:07;0.90;99.90
55642;DHT22;41509;53.108;6.100;2023-01-26T00:35:32;1.00;99.90
55642;DHT22;41509;53.108;6.100;2023-01-26T00:37:58;0.90;99.90
55642;DHT22;41509;53.108;6.100;2023-01-26T00:40:24;1.00;99.90
55642;DHT22;41509;53.108;6.100;2023-01-26T00:42:50;1.00;99.90
55642;DHT22;41509;53.108;6.100;2023-01-26T00:45:17;1.00;99.90
55642;DHT22;41509;53.108;6.100;2023-01-26T00:47:43;1.00;99.90
55642;DHT22;41509;53.108;6.100;2023-01-26T00:50:09;1.00;99.90
55642;DHT22;41509;53.108;6.100;2023-01-26T00:52:35;1.00;99.90
55642;DHT22;41509;53.108;6.100;2023-01-26T00:55:01;1.00;99.90
55642;DHT22;41509;53.108;6.100;2023-01-26T00:57:29;1.00;99.90
55642;DHT22;41509;53.108;6.100;2023-01-26T00:59:55;1.00;99.90
55642;DHT22;41509;53.108;6.100;2023-01-26T01:02:20;1.00;99.90
55642;DHT22;41509;53.108;6.100;2023-01-26T01:04:46;1.00;99.90
55642;DHT22;41509;53.108;6.100;2023-01-26T01:07:12;1.10;99.90
55642;DHT22;41509;53.108;6.100;2023-01-26T01:09:37;1.00;99.90
55642;DHT22;41509;53.108;6.100;2023-01-26T01:12:03;1.10;99.90
55642;DHT22;41509;53.108;6.100;2023-01-26T01:14:29;1.00;99.90
55642;DHT22;41509;53.108;6.100;2023-01-26T01:16:55;1.00;99.90
55642;DHT22;41509;53.108;6.100;2023-01-26T01:19:20;1.10;99.90
55642;DHT22;41509;53.108;6.100;2023-01-26T01:21:46;1.00;99.90
55642;DHT22;41509;53.108;6.100;2023-01-26T01:24:11;1.00;99.90
55642;DHT22;41509;53.108;6.100;2023-01-26T01:26:38;1.00;99.90
55642;DHT22;41509;53.108;6.100;2023-01-26T01:29:04;1.00;99.90
55642;DHT22;41509;53.108;6.100;2023-01-26T01:31:30;1.10;99.90
55642;DHT22;41509;53.108;6.100;2023-01-26T01:33:56;1.10;99.90
55642;DHT22;41509;53.108;6.100;2023-01-26T01:36:23;1.10;99.90
55642;DHT22;41509;53.108;6.100;2023-01-26T01:38:49;1.10;99.90
55642;DHT22;41509;53.108;6.100;2023-01-26T01:41:17;1.10;99.90
55642;DHT22;41509;53.108;6.100;2023-01-26T01:43:43;1.10;99.90
55642;DHT22;41509;53.108;6.100;2023-01-26T01:46:29;1.10;99.90
55642;DHT22;41509;53.108;6.100;2023-01-26T01:52:14;1.10;99.90
55642;DHT22;41509;53.108;6.100;2023-01-26T01:54:58;1.10;99.90
55642;DHT22;41509;53.108;6.100;2023-01-26T01:57:31;1.10;99.90
55642;DHT22;41509;53.108;6.100;2023-01-26T02:00:11;1.10;99.90
55642;DHT22;41509;53.108;6.100;2023-01-26T02:02:38;1.10;99.90
55642;DHT22;41509;53.108;6.100;2023-01-26T02:05:24;1.10;99.90
55642;DHT22;41509;53.108;6.100;2023-01-26T02:07:51;1.10;99.90
55642;DHT22;41509;53.108;6.100;2023-01-26T02:10:18;1.10;99.90
55642;DHT22;41509;53.108;6.100;2023-01-26T02:12:50;1.10;99.90
55642;DHT22;41509;53.108;6.100;2023-01-26T02:15:18;1.20;99.90
55642;DHT22;41509;53.108;6.100;2023-01-26T02:17:43;1.20;99.90
55642;DHT22;41509;53.108;6.100;2023-01-26T02:25:39;1.20;99.90
55642;DHT22;41509;53.108;6.100;2023-01-26T02:28:07;1.20;99.90
55642;DHT22;41509;53.108;6.100;2023-01-26T02:30:33;1.20;99.90
55642;DHT22;41509;53.108;6.100;2023-01-26T02:32:58;1.30;99.90
55642;DHT22;41509;53.108;6.100;2023-01-26T02:35:24;1.20;99.90
55642;DHT22;41509;53.108;6.100;2023-01-26T02:37:50;1.20;99.90
55642;DHT22;41509;53.108;6.100;2023-01-26T02:41:14;1.20;99.90
55642;DHT22;41509;53.108;6.100;2023-01-26T02:43:15;1.20;99.90
55642;DHT22;41509;53.108;6.100;2023-01-26T02:45:42;1.20;99.90
55642;DHT22;41509;53.108;6.100;2023-01-26T02:48:08;1.20;99.90
55642;DHT22;41509;53.108;6.100;2023-01-26T02:50:34;1.20;99.90
55642;DHT22;41509;53.108;6.100;2023-01-26T02:53:01;1.30;99.90
55642;DHT22;41509;53.108;6.100;2023-01-26T02:55:27;1.30;99.90
55642;DHT22;41509;53.108;6.100;2023-01-26T02:57:58;1.20;99.90
55642;DHT22;41509;53.108;6.100;2023-01-26T03:00:27;1.30;99.90
55642;DHT22;41509;53.108;6.100;2023-01-26T03:02:55;1.30;99.90
55642;DHT22;41509;53.108;6.100;2023-01-26T03:05:21;1.30;99.90
55642;DHT22;41509;53.108;6.100;2023-01-26T03:07:47;1.30;99.90
55642;DHT22;41509;53.108;6.100;2023-01-26T03:10:13;1.30;99.90
55642;DHT22;41509;53.108;6.100;2023-01-26T03:12:40;1.40;99.90
55642;DHT22;41509;53.108;6.100;2023-01-26T03:15:07;1.40;99.90
55642;DHT22;41509;53.108;6.100;2023-01-26T03:17:51;1.40;99.90
55642;DHT22;41509;53.108;6.100;2023-01-26T03:20:37;1.40;99.90
55642;DHT22;41509;53.108;6.100;2023-01-26T03:23:22;1.50;99.90
55642;DHT22;41509;53.108;6.100;2023-01-26T03:26:09;1.50;99.90
55642;DHT22;41509;53.108;6.100;2023-01-26T03:28:53;1.50;99.90
55642;DHT22;41509;53.108;6.100;2023-01-26T03:31:19;1.50;99.90
55642;DHT22;41509;53.108;6.100;2023-01-26T03:33:44;1.50;99.90
55642;DHT22;41509;53.108;6.100;2023-01-26T03:36:10;1.50;99.90
55642;DHT22;41509;53.108;6.100;2023-01-26T03:38:35;1.50;99.90
55642;DHT22;41509;53.108;6.100;2023-01-26T03:41:01;1.60;99.90
55642;DHT22;41509;53.108;6.100;2023-01-26T03:43:45;1.60;99.90
55642;DHT22;41509;53.108;6.100;2023-01-26T03:46:29;1.60;99.90
55642;DHT22;41509;53.108;6.100;2023-01-26T03:49:13;1.60;99.90
55642;DHT22;41509;53.108;6.100;2023-01-26T03:51:58;1.60;99.90
55642;DHT22;41509;53.108;6.100;2023-01-26T03:54:42;1.60;99.90
55642;DHT22;41509;53.108;6.100;2023-01-26T03:57:28;1.70;99.90
55642;DHT22;41509;53.108;6.100;2023-01-26T03:59:54;1.70;99.90
55642;DHT22;41509;53.108;6.100;2023-01-26T04:02:19;1.70;99.90
55642;DHT22;41509;53.108;6.100;2023-01-26T04:05:05;1.80;99.90
55642;DHT22;41509;53.108;6.100;2023-01-26T04:07:49;1.80;99.90
55642;DHT22;41509;53.108;6.100;2023-01-26T04:10:33;1.80;99.90
55642;DHT22;41509;53.108;6.100;2023-01-26T04:12:59;1.90;99.90
55642;DHT22;41509;53.108;6.100;2023-01-26T04:15:43;1.80;99.90
55642;DHT22;41509;53.108;6.100;2023-01-26T04:18:30;1.90;99.90
55642;DHT22;41509;53.108;6.100;2023-01-26T04:21:14;1.90;99.90
55642;DHT22;41509;53.108;6.100;2023-01-26T04:24:01;1.90;99.90
55642;DHT22;41509;53.108;6.100;2023-01-26T04:26:31;1.90;99.90
55642;DHT22;41509;53.108;6.100;2023-01-26T04:29:10;1.90;99.90
55642;DHT22;41509;53.108;6.100;2023-01-26T04:31:36;2.00;99.90
55642;DHT22;41509;53.108;6.100;2023-01-26T04:34:04;2.00;99.90
55642;DHT22;41509;53.108;6.100;2023-01-26T04:36:30;2.10;99.90
55642;DHT22;41509;53.108;6.100;2023-01-26T04:38:56;2.10;99.90
55642;DHT22;41509;53.108;6.100;2023-01-26T04:41:22;2.10;99.90
55642;DHT22;41509;53.108;6.100;2023-01-26T04:43:48;2.20;99.90
55642;DHT22;41509;53.108;6.100;2023-01-26T04:46:14;2.20;99.90
55642;DHT22;41509;53.108;6.100;2023-01-26T04:48:40;2.20;99.90
55642;DHT22;41509;53.108;6.100;2023-01-26T04:51:11;2.30;99.90
55642;DHT22;41509;53.108;6.100;2023-01-26T04:53:37;2.30;99.90
55642;DHT22;41509;53.108;6.100;2023-01-26T04:56:03;2.30;99.90
55642;DHT22;41509;53.108;6.100;2023-01-26T04:58:29;2.30;99.90
55642;DHT22;41509;53.108;6.100;2023-01-26T05:00:57;2.30;99.90
55642;DHT22;41509;53.108;6.100;2023-01-26T05:03:24;2.40;99.90
55642;DHT22;41509;53.108;6.100;2023-01-26T05:05:52;2.40;99.90
55642;DHT22;41509;53.108;6.100;2023-01-26T05:08:18;2.40;99.90
55642;DHT22;41509;53.108;6.100;2023-01-26T05:10:44;2.40;99.90
55642;DHT22;41509;53.108;6.100;2023-01-26T05:13:11;2.50;99.90
55642;DHT22;41509;53.108;6.100;2023-01-26T05:15:37;2.50;99.90
55642;DHT22;41509;53.108;6.100;2023-01-26T05:18:03;2.50;99.90
55642;DHT22;41509;53.108;6.100;2023-01-26T05:20:29;2.50;99.90
55642;DHT22;41509;53.108;6.100;2023-01-26T05:22:55;2.60;99.90
55642;DHT22;41509;53.108;6.100;2023-01-26T05:25:21;2.60;99.90
55642;DHT22;41509;53.108;6.100;2023-01-26T05:27:47;2.70;99.90
55642;DHT22;41509;53.108;6.100;2023-01-26T05:30:13;2.60;99.90
55642;DHT22;41509;53.108;6.100;2023-01-26T05:32:39;2.70;99.90
55642;DHT22;41509;53.108;6.100;2023-01-26T05:35:06;2.70;99.90
55642;DHT22;41509;53.108;6.100;2023-01-26T05:37:32;2.70;99.90
55642;DHT22;41509;53.108;6.100;2023-01-26T05:39:59;2.70;99.90
55642;DHT22;41509;53.108;6.100;2023-01-26T05:42:25;2.70;99.90
55642;DHT22;41509;53.108;6.100;2023-01-26T05:44:51;2.70;99.90
55642;DHT22;41509;53.108;6.100;2023-01-26T05:47:17;2.70;99.90
55642;DHT22;41509;53.108;6.100;2023-01-26T05:49:43;2.80;99.90
55642;DHT22;41509;53.108;6.100;2023-01-26T05:52:18;2.80;99.90
55642;DHT22;41509;53.108;6.100;2023-01-26T05:54:45;2.80;99.90
55642;DHT22;41509;53.108;6.100;2023-01-26T05:57:11;2.80;99.90
55642;DHT22;41509;53.108;6.100;2023-01-26T05:59:37;2.80;99.90
55642;DHT22;41509;53.108;6.100;2023-01-26T06:02:03;2.90;99.90
55642;DHT22;41509;53.108;6.100;2023-01-26T06:04:28;2.90;99.90
55642;DHT22;41509;53.108;6.100;2023-01-26T06:06:56;2.90;99.90
55642;DHT22;41509;53.108;6.100;2023-01-26T06:09:22;3.00;99.90
55642;DHT22;41509;53.108;6.100;2023-01-26T06:11:47;3.10;99.90
55642;DHT22;41509;53.108;6.100;2023-01-26T06:14:13;3.10;99.90
55642;DHT22;41509;53.108;6.100;2023-01-26T06:16:39;3.10;99.90
55642;DHT22;41509;53.108;6.100;2023-01-26T06:19:05;3.10;99.90
55642;DHT22;41509;53.108;6.100;2023-01-26T06:21:32;3.20;99.90
55642;DHT22;41509;53.108;6.100;2023-01-26T06:23:58;3.20;99.90
55642;DHT22;41509;53.108;6.100;2023-01-26T06:26:24;3.20;99.90
55642;DHT22;41509;53.108;6.100;2023-01-26T06:28:51;3.30;99.90
55642;DHT22;41509;53.108;6.100;2023-01-26T06:31:17;3.30;99.90
55642;DHT22;41509;53.108;6.100;2023-01-26T06:33:43;3.40;99.90
55642;DHT22;41509;53.108;6.100;2023-01-26T06:36:10;3.40;99.90
55642;DHT22;41509;53.108;6.100;2023-01-26T06:38:37;3.50;99.90
55642;DHT22;41509;53.108;6.100;2023-01-26T06:41:04;3.60;99.90
55642;DHT22;41509;53.108;6.100;2023-01-26T06:43:31;3.60;99.90
55642;DHT22;41509;53.108;6.100;2023-01-26T06:45:57;3.60;99.90
55642;DHT22;41509;53.108;6.100;2023-01-26T06:48:27;3.70;99.90
55642;DHT22;41509;53.108;6.100;2023-01-26T06:53:55;3.70;99.90
55642;DHT22;41509;53.108;6.100;2023-01-26T06:56:22;3.70;99.90
55642;DHT22;41509;53.108;6.100;2023-01-26T06:58:48;3.70;99.90
55642;DHT22;41509;53.108;6.100;2023-01-26T07:01:20;3.60;99.90
55642;DHT22;41509;53.108;6.100;2023-01-26T07:03:50;3.60;99.90
55642;DHT22;41509;53.108;6.100;2023-01-26T07:06:16;3.60;99.90
55642;DHT22;41509;53.108;6.100;2023-01-26T07:08:42;3.60;99.90
55642;DHT22;41509;53.108;6.100;2023-01-26T07:11:09;3.70;99.90
55642;DHT22;41509;53.108;6.100;2023-01-26T07:13:35;3.80;99.90
55642;DHT22;41509;53.108;6.100;2023-01-26T07:16:02;3.80;99.90
55642;DHT22;41509;53.108;6.100;2023-01-26T07:18:28;3.70;99.90
55642;DHT22;41509;53.108;6.100;2023-01-26T07:20:59;3.80;99.90
55642;DHT22;41509;53.108;6.100;2023-01-26T07:23:26;3.70;99.90
55642;DHT22;41509;53.108;6.100;2023-01-26T07:25:51;3.70;99.90
55642;DHT22;41509;53.108;6.100;2023-01-26T07:28:17;3.70;99.90
55642;DHT22;41509;53.108;6.100;2023-01-26T07:30:43;3.70;99.90
55642;DHT22;41509;53.108;6.100;2023-01-26T07:33:09;3.70;99.90
55642;DHT22;41509;53.108;6.100;2023-01-26T07:35:34;3.80;99.90
55642;DHT22;41509;53.108;6.100;2023-01-26T07:38:03;3.70;99.90
55642;DHT22;41509;53.108;6.100;2023-01-26T07:40:29;3.70;99.90
55642;DHT22;41509;53.108;6.100;2023-01-26T07:42:55;3.70;99.90
55642;DHT22;41509;53.108;6.100;2023-01-26T07:45:20;3.70;99.90
55642;DHT22;41509;53.108;6.100;2023-01-26T07:47:46;3.60;99.90
55642;DHT22;41509;53.108;6.100;2023-01-26T07:50:12;3.60;99.90
55642;DHT22;41509;53.108;6.100;2023-01-26T07:52:39;3.70;99.90
55642;DHT22;41509;53.108;6.100;2023-01-26T07:55:05;3.70;99.90
55642;DHT22;41509;53.108;6.100;2023-01-26T07:57:31;3.70;99.90
55642;DHT22;41509;53.108;6.100;2023-01-26T07:59:58;3.70;99.90
55642;DHT22;41509;53.108;6.100;2023-01-26T08:02:24;3.80;99.90
55642;DHT22;41509;53.108;6.100;2023-01-26T08:04:49;3.70;99.90
55642;DHT22;41509;53.108;6.100;2023-01-26T08:07:15;3.70;99.90
55642;DHT22;41509;53.108;6.100;2023-01-26T08:09:40;3.70;99.90
55642;DHT22;41509;53.108;6.100;2023-01-26T08:12:06;3.70;99.90
55642;DHT22;41509;53.108;6.100;2023-01-26T08:14:32;3.70;99.90
55642;DHT22;41509;53.108;6.100;2023-01-26T08:16:58;3.70;99.90
55642;DHT22;41509;53.108;6.100;2023-01-26T08:19:23;3.70;99.90
55642;DHT22;41509;53.108;6.100;2023-01-26T08:21:49;3.70;99.90
55642;DHT22;41509;53.108;6.100;2023-01-26T08:24:14;3.80;99.90
55642;DHT22;41509;53.108;6.100;2023-01-26T08:26:40;3.80;99.90
55642;DHT22;41509;53.108;6.100;2023-01-26T08:29:06;3.80;99.90
55642;DHT22;41509;53.108;6.100;2023-01-26T08:31:32;3.80;99.90
55642;DHT22;41509;53.108;6.100;2023-01-26T08:33:58;3.80;99.90
55642;DHT22;41509;53.108;6.100;2023-01-26T08:36:24;3.80;99.90
55642;DHT22;41509;53.108;6.100;2023-01-26T08:38:50;3.90;99.90
55642;DHT22;41509;53.108;6.100;2023-01-26T08:41:16;3.90;99.90
55642;DHT22;41509;53.108;6.100;2023-01-26T08:43:42;4.00;99.90
55642;DHT22;41509;53.108;6.100;2023-01-26T08:46:08;4.00;99.90
55642;DHT22;41509;53.108;6.100;2023-01-26T08:48:34;4.00;99.90
55642;DHT22;41509;53.108;6.100;2023-01-26T08:51:02;4.20;99.90
55642;DHT22;41509;53.108;6.100;2023-01-26T08:53:30;4.20;99.90
55642;DHT22;41509;53.108;6.100;2023-01-26T08:55:56;4.30;99.90
55642;DHT22;41509;53.108;6.100;2023-01-26T08:58:22;4.40;99.90
55642;DHT22;41509;53.108;6.100;2023-01-26T09:00:47;4.50;99.90
55642;DHT22;41509;53.108;6.100;2023-01-26T09:03:13;4.50;99.90
55642;DHT22;41509;53.108;6.100;2023-01-26T09:05:39;4.60;99.90
55642;DHT22;41509;53.108;6.100;2023-01-26T09:08:07;4.60;99.90
55642;DHT22;41509;53.108;6.100;2023-01-26T09:10:33;4.60;99.90
55642;DHT22;41509;53.108;6.100;2023-01-26T09:12:59;4.70;99.90
55642;DHT22;41509;53.108;6.100;2023-01-26T09:15:26;4.70;99.90
55642;DHT22;41509;53.108;6.100;2023-01-26T09:17:52;4.80;99.90
55642;DHT22;41509;53.108;6.100;2023-01-26T09:20:18;4.80;99.90
55642;DHT22;41509;53.108;6.100;2023-01-26T09:22:44;4.90;99.90
55642;DHT22;41509;53.108;6.100;2023-01-26T09:25:11;4.90;99.90
55642;DHT22;41509;53.108;6.100;2023-01-26T09:27:37;5.00;99.90
55642;DHT22;41509;53.108;6.100;2023-01-26T09:30:04;5.10;99.90
55642;DHT22;41509;53.108;6.100;2023-01-26T09:32:30;5.10;99.90
55642;DHT22;41509;53.108;6.100;2023-01-26T09:34:56;5.20;99.90
55642;DHT22;41509;53.108;6.100;2023-01-26T09:37:21;5.30;99.90
55642;DHT22;41509;53.108;6.100;2023-01-26T09:39:47;5.30;99.90
55642;DHT22;41509;53.108;6.100;2023-01-26T09:42:42;5.40;99.90
55642;DHT22;41509;53.108;6.100;2023-01-26T09:45:21;5.50;99.90
55642;DHT22;41509;53.108;6.100;2023-01-26T09:47:58;5.60;99.90
55642;DHT22;41509;53.108;6.100;2023-01-26T09:53:15;5.80;99.90
55642;DHT22;41509;53.108;6.100;2023-01-26T09:55:44;5.90;99.90
55642;DHT22;41509;53.108;6.100;2023-01-26T09:58:20;5.90;99.90
55642;DHT22;41509;53.108;6.100;2023-01-26T10:00:52;6.00;99.90
55642;DHT22;41509;53.108;6.100;2023-01-26T10:06:30;6.20;99.90
55642;DHT22;41509;53.108;6.100;2023-01-26T10:09:05;6.30;99.90
55642;DHT22;41509;53.108;6.100;2023-01-26T10:11:34;6.30;99.90
55642;DHT22;41509;53.108;6.100;2023-01-26T10:16:55;6.50;99.90
55642;DHT22;41509;53.108;6.100;2023-01-26T10:19:42;6.60;99.90
55642;DHT22;41509;53.108;6.100;2023-01-26T10:22:27;6.70;99.90
55642;DHT22;41509;53.108;6.100;2023-01-26T10:24:56;6.70;99.90
55642;DHT22;41509;53.108;6.100;2023-01-26T10:27:22;6.80;99.90
55642;DHT22;41509;53.108;6.100;2023-01-26T10:29:47;6.80;99.90
55642;DHT22;41509;53.108;6.100;2023-01-26T10:32:17;6.90;99.90
55642;DHT22;41509;53.108;6.100;2023-01-26T10:34:45;6.90;99.90
55642;DHT22;41509;53.108;6.100;2023-01-26T10:37:21;7.00;99.90
55642;DHT22;41509;53.108;6.100;2023-01-26T10:40:06;7.00;99.90
55642;DHT22;41509;53.108;6.100;2023-01-26T10:42:34;7.00;99.90
55642;DHT22;41509;53.108;6.100;2023-01-26T10:45:02;7.10;99.90
55642;DHT22;41509;53.108;6.100;2023-01-26T10:47:28;7.20;99.90
55642;DHT22;41509;53.108;6.100;2023-01-26T10:50:17;7.30;99.90
55642;DHT22;41509;53.108;6.100;2023-01-26T10:52:58;7.50;99.90
55642;DHT22;41509;53.108;6.100;2023-01-26T10:55:24;7.70;99.90
55642;DHT22;41509;53.108;6.100;2023-01-26T10:57:50;7.80;99.90
55642;DHT22;41509;53.108;6.100;2023-01-26T11:00:31;7.90;99.90
55642;DHT22;41509;53.108;6.100;2023-01-26T11:03:16;8.00;99.90
55642;DHT22;41509;53.108;6.100;2023-01-26T11:05:42;8.10;99.90
55642;DHT22;41509;53.108;6.100;2023-01-26T11:08:31;8.10;99.90
55642;DHT22;41509;53.108;6.100;2023-01-26T11:11:01;8.10;99.90
55642;DHT22;41509;53.108;6.100;2023-01-26T11:13:28;8.10;99.90
55642;DHT22;41509;53.108;6.100;2023-01-26T11:59:08;8.20;99.90
55642;DHT22;41509;53.108;6.100;2023-01-26T12:04:46;8.20;99.90
55642;DHT22;41509;53.108;6.100;2023-01-26T12:07:22;8.20;99.90
55642;DHT22;41509;53.108;6.100;2023-01-26T12:09:51;8.20;99.90
55642;DHT22;41509;53.108;6.100;2023-01-26T12:15:05;8.10;99.90
55642;DHT22;41509;53.108;6.100;2023-01-26T12:20:39;8.20;99.90
55642;DHT22;41509;53.108;6.100;2023-01-26T12:25:59;8.30;99.90
55642;DHT22;41509;53.108;6.100;2023-01-26T12:31:16;8.40;99.90
55642;DHT22;41509;53.108;6.100;2023-01-26T12:33:42;8.40;99.90
55642;DHT22;41509;53.108;6.100;2023-01-26T12:39:11;8.40;99.90
55642;DHT22;41509;53.108;6.100;2023-01-26T12:44:40;8.30;99.90
55642;DHT22;41509;53.108;6.100;2023-01-26T12:47:31;8.30;99.90
55642;DHT22;41509;53.108;6.100;2023-01-26T12:52:52;8.30;99.90
55642;DHT22;41509;53.108;6.100;2023-01-26T12:55:23;8.30;99.90
55642;DHT22;41509;53.108;6.100;2023-01-26T12:58:02;8.30;99.90
55642;DHT22;41509;53.108;6.100;2023-01-26T13:00:34;8.20;99.90
55642;DHT22;41509;53.108;6.100;2023-01-26T13:03:25;8.20;99.90
55642;DHT22;41509;53.108;6.100;2023-01-26T13:10:55;8.20;99.90
55642;DHT22;41509;53.108;6.100;2023-01-26T13:13:25;8.20;99.90
55642;DHT22;41509;53.108;6.100;2023-01-26T13:18:48;8.20;99.90
55642;DHT22;41509;53.108;6.100;2023-01-26T13:26:49;8.10;99.90
55642;DHT22;41509;53.108;6.100;2023-01-26T13:31:57;8.10;99.90
55642;DHT22;41509;53.108;6.100;2023-01-26T13:37:16;8.00;99.90
55642;DHT22;41509;53.108;6.100;2023-01-26T13:39:43;8.00;99.90
55642;DHT22;41509;53.108;6.100;2023-01-26T13:42:18;8.00;99.90
55642;DHT22;41509;53.108;6.100;2023-01-26T13:44:55;7.90;99.90
55642;DHT22;41509;53.108;6.100;2023-01-26T13:47:27;7.90;99.90
55642;DHT22;41509;53.108;6.100;2023-01-26T13:49:54;7.90;99.90
55642;DHT22;41509;53.108;6.100;2023-01-26T13:52:23;7.90;99.90
55642;DHT22;41509;53.108;6.100;2023-01-26T13:54:51;7.80;99.90
55642;DHT22;41509;53.108;6.100;2023-01-26T13:57:26;7.80;99.90
55642;DHT22;41509;53.108;6.100;2023-01-26T13:59:54;7.80;99.90
55642;DHT22;41509;53.108;6.100;2023-01-26T14:02:32;7.80;99.90
55642;DHT22;41509;53.108;6.100;2023-01-26T14:04:59;7.80;99.90
55642;DHT22;41509;53.108;6.100;2023-01-26T14:07:37;7.70;99.90
55642;DHT22;41509;53.108;6.100;2023-01-26T14:10:05;7.70;99.90
55642;DHT22;41509;53.108;6.100;2023-01-26T14:12:42;7.70;99.90
55642;DHT22;41509;53.108;6.100;2023-01-26T14:17:50;7.60;99.90
55642;DHT22;41509;53.108;6.100;2023-01-26T14:20:34;7.60;99.90
55642;DHT22;41509;53.108;6.100;2023-01-26T14:25:36;7.60;99.90
55642;DHT22;41509;53.108;6.100;2023-01-26T14:28:02;7.60;99.90
55642;DHT22;41509;53.108;6.100;2023-01-26T14:30:33;7.60;99.90
55642;DHT22;41509;53.108;6.100;2023-01-26T14:33:13;7.60;99.90
55642;DHT22;41509;53.108;6.100;2023-01-26T14:35:54;7.50;99.90
55642;DHT22;41509;53.108;6.100;2023-01-26T14:38:19;7.50;99.90
55642;DHT22;41509;53.108;6.100;2023-01-26T14:40:47;7.50;99.90
55642;DHT22;41509;53.108;6.100;2023-01-26T14:43:14;7.50;99.90
55642;DHT22;41509;53.108;6.100;2023-01-26T14:45:46;7.50;99.90
55642;DHT22;41509;53.108;6.100;2023-01-26T14:48:16;7.50;99.90
55642;DHT22;41509;53.108;6.100;2023-01-26T14:50:44;7.50;99.90
55642;DHT22;41509;53.108;6.100;2023-01-26T14:53:21;7.50;99.90
55642;DHT22;41509;53.108;6.100;2023-01-26T14:55:49;7.50;99.90
55642;DHT22;41509;53.108;6.100;2023-01-26T14:58:33;7.50;99.90
55642;DHT22;41509;53.108;6.100;2023-01-26T15:01:00;7.50;99.90
55642;DHT22;41509;53.108;6.100;2023-01-26T15:03:36;7.50;99.90
55642;DHT22;41509;53.108;6.100;2023-01-26T15:06:17;7.40;99.90
55642;DHT22;41509;53.108;6.100;2023-01-26T15:11:57;7.50;99.90
55642;DHT22;41509;53.108;6.100;2023-01-26T15:19:57;7.40;99.90
55642;DHT22;41509;53.108;6.100;2023-01-26T15:22:25;7.40;99.90
55642;DHT22;41509;53.108;6.100;2023-01-26T15:25:02;7.30;99.90
55642;DHT22;41509;53.108;6.100;2023-01-26T15:27:33;7.40;99.90
55642;DHT22;41509;53.108;6.100;2023-01-26T15:29:59;7.30;99.90
55642;DHT22;41509;53.108;6.100;2023-01-26T15:32:31;7.30;99.90
55642;DHT22;41509;53.108;6.100;2023-01-26T15:35:05;7.30;99.90
55642;DHT22;41509;53.108;6.100;2023-01-26T15:37:32;7.20;99.90
55642;DHT22;41509;53.108;6.100;2023-01-26T15:39:59;7.20;99.90
55642;DHT22;41509;53.108;6.100;2023-01-26T15:42:26;7.20;99.90
55642;DHT22;41509;53.108;6.100;2023-01-26T15:44:53;7.10;99.90
55642;DHT22;41509;53.108;6.100;2023-01-26T15:47:19;7.10;99.90
55642;DHT22;41509;53.108;6.100;2023-01-26T15:49:44;7.10;99.90
55642;DHT22;41509;53.108;6.100;2023-01-26T15:52:15;7.10;99.90
55642;DHT22;41509;53.108;6.100;2023-01-26T15:54:41;7.10;99.90
55642;DHT22;41509;53.108;6.100;2023-01-26T15:57:09;7.10;99.90
55642;DHT22;41509;53.108;6.100;2023-01-26T15:59:35;7.00;99.90
55642;DHT22;41509;53.108;6.100;2023-01-26T16:02:01;7.00;99.90
55642;DHT22;41509;53.108;6.100;2023-01-26T16:04:27;7.00;99.90
55642;DHT22;41509;53.108;6.100;2023-01-26T16:06:53;6.90;99.90
55642;DHT22;41509;53.108;6.100;2023-01-26T16:09:18;6.90;99.90
55642;DHT22;41509;53.108;6.100;2023-01-26T16:11:50;6.90;99.90
55642;DHT22;41509;53.108;6.100;2023-01-26T16:14:16;6.90;99.90
55642;DHT22;41509;53.108;6.100;2023-01-26T16:16:42;6.80;99.90
55642;DHT22;41509;53.108;6.100;2023-01-26T16:19:07;6.80;99.90
55642;DHT22;41509;53.108;6.100;2023-01-26T16:21:35;6.70;99.90
55642;DHT22;41509;53.108;6.100;2023-01-26T16:24:02;6.70;99.90
55642;DHT22;41509;53.108;6.100;2023-01-26T16:26:29;6.60;99.90
55642;DHT22;41509;53.108;6.100;2023-01-26T16:28:55;6.70;99.90
55642;DHT22;41509;53.108;6.100;2023-01-26T16:31:38;6.60;99.90
55642;DHT22;41509;53.108;6.100;2023-01-26T16:34:05;6.60;99.90
55642;DHT22;41509;53.108;6.100;2023-01-26T16:36:31;6.60;99.90
55642;DHT22;41509;53.108;6.100;2023-01-26T16:38:56;6.60;99.90
55642;DHT22;41509;53.108;6.100;2023-01-26T16:41:30;6.50;99.90
55642;DHT22;41509;53.108;6.100;2023-01-26T16:43:58;6.40;99.90
55642;DHT22;41509;53.108;6.100;2023-01-26T16:46:24;6.40;99.90
55642;DHT22;41509;53.108;6.100;2023-01-26T16:48:50;6.40;99.90
55642;DHT22;41509;53.108;6.100;2023-01-26T16:51:31;6.40;99.90
55642;DHT22;41509;53.108;6.100;2023-01-26T16:53:57;6.30;99.90
55642;DHT22;41509;53.108;6.100;2023-01-26T16:56:24;6.30;99.90
55642;DHT22;41509;53.108;6.100;2023-01-26T16:58:49;6.30;99.90
55642;DHT22;41509;53.108;6.100;2023-01-26T17:01:21;6.30;99.90
55642;DHT22;41509;53.108;6.100;2023-01-26T17:03:50;6.30;99.90
55642;DHT22;41509;53.108;6.100;2023-01-26T17:06:19;6.30;99.90
55642;DHT22;41509;53.108;6.100;2023-01-26T17:08:45;6.20;99.90
55642;DHT22;41509;53.108;6.100;2023-01-26T17:11:22;6.20;99.90
55642;DHT22;41509;53.108;6.100;2023-01-26T17:13:49;6.20;99.90
55642;DHT22;41509;53.108;6.100;2023-01-26T17:16:17;6.20;99.90
55642;DHT22;41509;53.108;6.100;2023-01-26T17:18:43;6.20;99.90
55642;DHT22;41509;53.108;6.100;2023-01-26T17:21:10;6.10;99.90
55642;DHT22;41509;53.108;6.100;2023-01-26T17:23:37;6.10;99.90
55642;DHT22;41509;53.108;6.100;2023-01-26T17:26:06;6.00;99.90
55642;DHT22;41509;53.108;6.100;2023-01-26T17:28:32;6.00;99.90
55642;DHT22;41509;53.108;6.100;2023-01-26T17:30:58;5.90;99.90
55642;DHT22;41509;53.108;6.100;2023-01-26T17:33:24;5.90;99.90
55642;DHT22;41509;53.108;6.100;2023-01-26T17:35:58;5.90;99.90
55642;DHT22;41509;53.108;6.100;2023-01-26T17:38:24;5.80;99.90
55642;DHT22;41509;53.108;6.100;2023-01-26T17:40:56;5.70;99.90
55642;DHT22;41509;53.108;6.100;2023-01-26T17:43:22;5.70;99.90
55642;DHT22;41509;53.108;6.100;2023-01-26T17:45:48;5.70;99.90
55642;DHT22;41509;53.108;6.100;2023-01-26T17:48:14;5.70;99.90
55642;DHT22;41509;53.108;6.100;2023-01-26T17:50:49;5.60;99.90
55642;DHT22;41509;53.108;6.100;2023-01-26T17:53:15;5.60;99.90
55642;DHT22;41509;53.108;6.100;2023-01-26T17:55:41;5.50;99.90
55642;DHT22;41509;53.108;6.100;2023-01-26T17:58:07;5.50;99.90